Time;durP1;ratioP1;P1;durP2;ratioP2;P2;SDS_P1;SDS_P2;PMS_P1;PMS_P2;Temp;Humidity;BMP_temperature;BMP_pressure;BME280_temperature;BME280_humidity;BME280_pressure;Samples;Min_cycle;Max_cycle;Signal;HPM_P1;HPM_P2
2022/10/24 00:00:06;;;;;;;9.70;7.40;;;;;;;13.18;61.15;101051.68;105982;1303;22053;-68
2022/10/24 00:02:32;;;;;;;10.40;7.20;;;;;;;13.18;60.91;101050.79;106991;1305;21966;-61
2022/10/24 00:04:59;;;;;;;10.40;7.40;;;;;;;13.18;60.81;101049.57;106025;1301;21977;-61
2022/10/24 00:07:25;;;;;;;11.60;8.70;;;;;;;13.17;60.73;101045.88;106149;1303;21974;-63
2022/10/24 00:09:52;;;;;;;9.60;7.90;;;;;;;13.14;60.70;101040.98;106270;1304;21974;-68
2022/10/24 00:12:22;;;;;;;12.70;9.10;;;;;;;13.12;60.65;101038.02;106229;1302;21965;-69
2022/10/24 00:14:48;;;;;;;10.00;7.40;;;;;;;13.10;60.77;101038.73;106200;1303;21973;-67
2022/10/24 00:17:16;;;;;;;10.50;7.70;;;;;;;13.07;60.78;101039.29;105406;1303;1002308;-68
2022/10/24 00:19:42;;;;;;;11.00;8.50;;;;;;;13.04;60.64;101038.27;106142;1303;21965;-68
2022/10/24 00:22:08;;;;;;;9.50;8.00;;;;;;;13.02;60.82;101042.71;106175;1299;22001;-68
2022/10/24 00:24:34;;;;;;;12.50;8.30;;;;;;;13.00;60.91;101043.09;106168;1301;21955;-68
2022/10/24 00:26:59;;;;;;;9.90;7.50;;;;;;;12.98;60.79;101044.52;106188;1303;21959;-68
2022/10/24 00:29:25;;;;;;;10.90;7.80;;;;;;;12.98;60.70;101042.77;106265;1292;21967;-61
2022/10/24 00:31:51;;;;;;;10.90;8.40;;;;;;;12.99;60.73;101038.35;106200;1303;21959;-62
2022/10/24 00:34:17;;;;;;;12.10;8.90;;;;;;;12.98;60.76;101035.18;106239;1303;21969;-68
2022/10/24 00:36:43;;;;;;;11.20;8.60;;;;;;;12.97;60.86;101034.31;106264;1296;21982;-69
2022/10/24 00:39:11;;;;;;;11.50;8.50;;;;;;;12.93;61.04;101035.77;106181;1303;21957;-69
2022/10/24 00:41:41;;;;;;;11.10;8.00;;;;;;;12.91;60.84;101034.54;106145;1303;21968;-68
2022/10/24 00:44:25;;;;;;;12.00;8.40;;;;;;;12.86;61.12;101034.24;106157;1302;21957;-68
2022/10/24 00:47:00;;;;;;;12.80;9.10;;;;;;;12.82;61.23;101032.38;105900;1306;21975;-61
2022/10/24 00:49:52;;;;;;;10.10;7.40;;;;;;;12.79;61.18;101032.05;105978;1297;21970;-62
2022/10/24 00:52:23;;;;;;;10.50;8.20;;;;;;;12.79;61.06;101033.27;106135;1303;21967;-68
2022/10/24 00:54:50;;;;;;;9.90;7.90;;;;;;;12.78;60.96;101035.41;106238;1290;21959;-68
2022/10/24 00:57:48;;;;;;;9.70;8.00;;;;;;;12.74;60.98;101040.55;106236;1304;21964;-62
2022/10/24 01:00:22;;;;;;;12.50;8.80;;;;;;;12.75;61.03;101037.55;106276;1289;21953;-68
2022/10/24 01:02:48;;;;;;;10.80;8.10;;;;;;;12.76;61.14;101039.30;106240;1302;21968;-64
2022/10/24 01:05:13;;;;;;;12.10;9.00;;;;;;;12.76;61.19;101039.83;106242;1304;21969;-69
2022/10/24 01:07:49;;;;;;;12.90;9.60;;;;;;;12.78;61.11;101040.70;106044;1304;21968;-63
2022/10/24 01:11:06;;;;;;;11.40;8.90;;;;;;;12.77;60.97;101039.83;106161;1303;21996;-69
2022/10/24 01:13:53;;;;;;;13.30;9.10;;;;;;;12.75;60.87;101037.90;105708;1309;21977;-61
2022/10/24 01:16:41;;;;;;;11.20;8.80;;;;;;;12.76;60.81;101039.99;106124;1303;21964;-62
2022/10/24 01:19:19;;;;;;;12.30;8.80;;;;;;;12.72;60.92;101040.04;106245;1303;21972;-62
2022/10/24 01:21:49;;;;;;;11.50;9.40;;;;;;;12.66;61.44;101036.92;106171;1302;21965;-70
2022/10/24 01:24:27;;;;;;;13.90;9.10;;;;;;;12.60;61.46;101036.98;106148;1304;21944;-69
2022/10/24 01:27:04;;;;;;;12.40;9.50;;;;;;;12.54;61.42;101034.95;106117;1303;21963;-68
2022/10/24 01:30:21;;;;;;;13.00;8.90;;;;;;;12.49;61.51;101038.34;106164;1303;21968;-70
2022/10/24 01:32:53;;;;;;;13.70;9.20;;;;;;;12.48;61.53;101040.64;105928;1303;22030;-69
2022/10/24 01:35:41;;;;;;;11.40;8.00;;;;;;;12.45;61.69;101044.54;106159;1303;21977;-62
2022/10/24 01:38:12;;;;;;;11.40;9.00;;;;;;;12.41;61.78;101048.09;106067;1304;21960;-70
2022/10/24 01:40:44;;;;;;;11.80;8.50;;;;;;;12.39;61.68;101048.46;106235;1302;21960;-69
2022/10/24 01:43:11;;;;;;;11.30;8.50;;;;;;;12.39;61.57;101047.05;106253;1304;21946;-62
2022/10/24 01:45:38;;;;;;;13.20;9.70;;;;;;;12.36;62.16;101049.02;106243;1303;21971;-66
2022/10/24 01:48:06;;;;;;;11.50;8.40;;;;;;;12.32;62.09;101050.82;106219;1302;22033;-62
2022/10/24 01:50:34;;;;;;;15.10;10.30;;;;;;;12.33;61.91;101053.62;105194;1303;1002472;-70
2022/10/24 01:53:01;;;;;;;11.10;8.80;;;;;;;12.33;62.12;101057.50;106153;1303;22026;-62
2022/10/24 01:55:28;;;;;;;13.30;9.80;;;;;;;12.32;62.03;101057.15;106152;1303;21992;-62
2022/10/24 01:57:54;;;;;;;12.20;8.90;;;;;;;12.31;62.01;101059.63;106236;1303;21960;-69
2022/10/24 02:00:21;;;;;;;14.30;8.80;;;;;;;12.30;61.96;101059.63;106192;1303;21967;-62
2022/10/24 02:02:57;;;;;;;14.70;9.40;;;;;;;12.30;61.97;101058.75;106002;1295;21968;-70
2022/10/24 02:05:26;;;;;;;15.90;9.40;;;;;;;12.29;61.93;101059.81;105955;1305;21971;-62
2022/10/24 02:07:55;;;;;;;15.80;9.90;;;;;;;12.28;61.87;101063.87;106111;1304;21968;-69
2022/10/24 02:10:33;;;;;;;13.20;9.40;;;;;;;12.26;62.09;101066.36;106099;1303;21966;-70
2022/10/24 02:13:04;;;;;;;11.80;8.90;;;;;;;12.25;62.01;101070.41;106094;1303;21972;-70
2022/10/24 02:15:35;;;;;;;12.90;9.20;;;;;;;12.26;61.98;101072.52;106186;1303;21952;-62
2022/10/24 02:18:02;;;;;;;13.70;9.80;;;;;;;12.25;62.06;101073.22;106245;1303;21965;-70
2022/10/24 02:20:57;;;;;;;15.30;10.50;;;;;;;12.26;62.02;101078.50;106016;1304;21982;-63
2022/10/24 02:23:33;;;;;;;14.30;10.70;;;;;;;12.26;62.03;101078.15;106205;1303;21938;-62
2022/10/24 02:25:59;;;;;;;14.70;10.10;;;;;;;12.25;62.23;101078.86;106150;1302;23145;-63
2022/10/24 02:28:29;;;;;;;14.70;10.50;;;;;;;12.26;62.13;101080.61;106096;1301;21966;-63
2022/10/24 02:31:01;;;;;;;16.10;11.10;;;;;;;12.27;62.05;101083.59;106125;1304;21944;-63
2022/10/24 02:33:27;;;;;;;13.50;10.40;;;;;;;12.31;62.02;101084.44;106196;1303;21963;-70
2022/10/24 02:35:53;;;;;;;13.70;10.30;;;;;;;12.33;61.94;101083.20;105841;1304;22037;-69
2022/10/24 02:38:40;;;;;;;14.40;10.70;;;;;;;12.32;62.08;101085.66;105802;1304;21961;-63
2022/10/24 02:41:11;;;;;;;13.10;9.50;;;;;;;12.30;61.96;101090.60;106201;1303;23088;-64
2022/10/24 02:43:38;;;;;;;13.90;10.20;;;;;;;12.27;61.83;101085.52;105807;1303;23197;-63
2022/10/24 02:46:04;;;;;;;15.40;10.00;;;;;;;12.24;62.25;101088.02;106178;1298;21960;-70
2022/10/24 02:48:35;;;;;;;13.30;10.50;;;;;;;12.24;62.38;101092.94;106045;1303;21964;-63
2022/10/24 02:51:00;;;;;;;13.60;10.60;;;;;;;12.25;62.26;101094.52;106163;1299;21960;-70
2022/10/24 02:53:26;;;;;;;14.50;11.10;;;;;;;12.25;62.17;101096.45;106178;1303;22019;-62
2022/10/24 02:55:52;;;;;;;14.00;10.00;;;;;;;12.25;62.19;101099.45;106182;1303;21967;-70
2022/10/24 02:58:18;;;;;;;15.40;11.10;;;;;;;12.23;62.29;101103.14;106136;1303;22020;-70
2022/10/24 03:00:43;;;;;;;15.40;10.90;;;;;;;12.23;62.18;101102.63;106095;1290;21954;-69
2022/10/24 03:03:09;;;;;;;12.30;10.20;;;;;;;12.26;62.21;101102.60;106151;1303;21978;-63
2022/10/24 03:05:35;;;;;;;14.10;10.10;;;;;;;12.26;61.83;101104.71;106183;1304;21966;-64
2022/10/24 03:08:02;;;;;;;14.60;11.50;;;;;;;12.25;61.95;101103.48;105891;1304;23636;-63
2022/10/24 03:10:29;;;;;;;15.00;10.80;;;;;;;12.23;61.93;101104.20;106124;1303;21981;-69
2022/10/24 03:12:59;;;;;;;14.50;11.40;;;;;;;12.22;61.89;101104.56;106141;1303;22021;-69
2022/10/24 03:15:26;;;;;;;14.80;10.30;;;;;;;12.22;62.05;101105.79;106353;1301;21985;-64
2022/10/24 03:17:54;;;;;;;14.30;10.20;;;;;;;12.22;62.05;101109.66;106181;1303;21971;-69
2022/10/24 03:20:20;;;;;;;15.50;10.70;;;;;;;12.25;61.89;101114.58;106065;1304;21970;-63
2022/10/24 03:22:46;;;;;;;16.90;10.70;;;;;;;12.25;62.01;101118.96;105760;1304;22758;-67
2022/10/24 03:25:12;;;;;;;13.00;10.30;;;;;;;12.26;61.85;101119.84;106170;1303;21962;-67
2022/10/24 03:27:38;;;;;;;13.70;10.20;;;;;;;12.25;61.81;101123.73;106114;1303;21960;-64
2022/10/24 03:30:05;;;;;;;14.80;11.70;;;;;;;12.20;61.53;101124.28;106010;1303;21955;-65
2022/10/24 03:32:32;;;;;;;11.20;9.10;;;;;;;12.17;61.44;101122.36;106958;1301;21963;-68
2022/10/24 03:34:59;;;;;;;14.60;10.30;;;;;;;12.14;61.41;101121.16;106155;1303;21958;-64
2022/10/24 03:37:25;;;;;;;13.40;9.50;;;;;;;12.11;61.30;101122.59;106117;1303;21968;-66
2022/10/24 03:39:51;;;;;;;15.70;10.60;;;;;;;12.09;61.51;101121.36;106093;1303;21968;-64
2022/10/24 03:42:17;;;;;;;14.20;10.50;;;;;;;12.06;61.47;101118.58;106128;1303;21967;-64
2022/10/24 03:44:43;;;;;;;14.30;10.30;;;;;;;12.07;61.28;101115.23;106131;1303;21960;-65
2022/10/24 03:47:08;;;;;;;15.60;10.40;;;;;;;12.09;61.34;101117.85;106126;1303;21957;-64
2022/10/24 03:49:34;;;;;;;13.30;9.50;;;;;;;12.10;61.23;101115.56;106082;1303;22143;-64
2022/10/24 03:52:07;;;;;;;16.30;11.10;;;;;;;12.11;61.13;101115.91;106146;1303;23631;-64
2022/10/24 03:57:38;;;;;;;13.00;10.10;;;;;;;12.14;60.86;101123.63;105251;1305;544425;-70
2022/10/24 04:00:04;;;;;;;17.20;9.80;;;;;;;12.08;61.08;101123.67;105373;1312;21977;-72
2022/10/24 04:02:30;;;;;;;16.10;10.30;;;;;;;12.09;61.27;101125.24;105330;1312;22064;-64
2022/10/24 04:04:56;;;;;;;17.30;9.60;;;;;;;12.12;61.17;101127.33;105222;1312;21979;-69
2022/10/24 04:07:22;;;;;;;15.00;9.80;;;;;;;12.15;61.28;101126.08;105198;1312;21965;-63
2022/10/24 04:09:48;;;;;;;14.90;10.50;;;;;;;12.11;61.00;101133.14;105797;1312;21828;-69
2022/10/24 04:12:16;;;;;;;14.70;10.80;;;;;;;12.07;60.94;101137.74;105423;1311;144611;-64
2022/10/24 04:14:42;;;;;;;14.00;10.90;;;;;;;12.03;61.07;101133.02;105559;1294;21966;-68
2022/10/24 04:17:09;;;;;;;16.10;11.20;;;;;;;12.02;61.22;101132.67;105571;1309;21957;-63
2022/10/24 04:19:36;;;;;;;15.00;11.50;;;;;;;11.99;61.32;101133.72;105565;1310;22431;-64
2022/10/24 04:22:02;;;;;;;14.20;10.60;;;;;;;11.97;61.35;101134.42;105605;1306;22049;-70
2022/10/24 04:24:28;;;;;;;15.00;10.80;;;;;;;11.95;61.61;101134.95;105660;1309;21980;-70
2022/10/24 04:26:54;;;;;;;18.00;11.40;;;;;;;11.92;61.65;101133.05;105672;1309;21970;-69
2022/10/24 04:29:20;;;;;;;15.60;11.80;;;;;;;11.88;61.76;101130.79;105880;1308;22008;-63
2022/10/24 04:31:45;;;;;;;16.40;11.30;;;;;;;11.88;61.54;101130.61;105555;1309;21970;-70
2022/10/24 04:34:11;;;;;;;14.90;11.00;;;;;;;11.90;61.74;101131.30;105636;1308;21970;-63
2022/10/24 04:36:37;;;;;;;17.90;11.40;;;;;;;11.86;61.67;101132.20;105606;1308;21972;-63
2022/10/24 04:39:04;;;;;;;15.70;10.50;;;;;;;11.82;61.69;101132.75;105653;1309;22008;-63
2022/10/24 04:41:29;;;;;;;15.00;11.40;;;;;;;11.80;62.18;101136.45;105872;1309;23170;-71
2022/10/24 04:43:55;;;;;;;16.90;11.70;;;;;;;11.80;61.92;101135.39;105615;1309;21997;-71
2022/10/24 04:46:21;;;;;;;15.40;11.30;;;;;;;11.79;61.98;101133.30;105661;1308;21972;-71
2022/10/24 04:48:46;;;;;;;14.40;11.70;;;;;;;11.84;61.88;101138.02;105673;1309;21981;-63
2022/10/24 04:51:13;;;;;;;13.80;10.40;;;;;;;11.88;61.85;101139.95;105430;1309;21977;-63
2022/10/24 04:53:38;;;;;;;14.10;10.50;;;;;;;11.87;61.98;101140.29;105739;1308;22438;-63
2022/10/24 04:56:05;;;;;;;15.40;10.30;;;;;;;11.88;61.99;101140.98;105654;1309;23644;-71
2022/10/24 04:58:32;;;;;;;13.50;10.70;;;;;;;11.91;61.97;101147.13;105792;1305;21971;-70
2022/10/24 05:00:57;;;;;;;14.40;10.70;;;;;;;11.91;62.02;101146.60;105793;1309;22055;-63
2022/10/24 05:03:23;;;;;;;14.60;11.40;;;;;;;11.92;62.09;101150.65;105695;1309;21965;-63
2022/10/24 05:05:49;;;;;;;14.90;9.90;;;;;;;11.96;62.11;101148.67;105661;1307;21963;-73
2022/10/24 05:08:15;;;;;;;18.00;10.60;;;;;;;12.00;61.99;101150.61;105700;1307;21961;-64
2022/10/24 05:10:44;;;;;;;16.90;10.20;;;;;;;12.06;62.10;101150.23;105710;1301;21976;-63
2022/10/24 05:13:14;;;;;;;17.00;11.00;;;;;;;12.14;62.06;101150.19;105671;1304;21975;-72
2022/10/24 05:15:42;;;;;;;12.10;9.50;;;;;;;12.19;62.14;101153.48;105682;1308;21978;-63
2022/10/24 05:18:08;;;;;;;14.80;10.50;;;;;;;12.25;62.08;101156.63;105711;1308;21961;-73
2022/10/24 05:20:35;;;;;;;21.40;11.80;;;;;;;12.32;61.87;101158.33;105811;1309;23070;-68
2022/10/24 05:23:01;;;;;;;14.40;10.90;;;;;;;12.39;61.89;101157.58;105663;1305;22032;-71
2022/10/24 05:25:27;;;;;;;18.40;11.50;;;;;;;12.47;61.81;101159.28;105654;1307;21959;-63
2022/10/24 05:27:53;;;;;;;15.30;11.60;;;;;;;12.55;61.75;101155.70;105673;1304;22238;-70
2022/10/24 05:30:18;;;;;;;17.10;11.40;;;;;;;12.63;61.92;101153.16;105757;1305;21968;-63
2022/10/24 05:32:44;;;;;;;15.30;12.20;;;;;;;12.75;61.96;101158.35;105641;1306;21965;-63
2022/10/24 05:35:10;;;;;;;14.20;10.10;;;;;;;12.84;61.80;101158.63;105776;1306;21961;-63
2022/10/24 05:37:37;;;;;;;14.40;10.30;;;;;;;12.93;61.88;101156.95;105779;1306;21980;-69
2022/10/24 05:40:06;;;;;;;14.00;9.40;;;;;;;13.02;61.82;101159.52;105763;1301;21985;-63
2022/10/24 05:42:32;;;;;;;14.70;10.40;;;;;;;13.11;61.94;101163.30;105652;1306;21992;-69
2022/10/24 05:44:58;;;;;;;15.20;11.10;;;;;;;13.15;61.91;101165.02;105727;1306;21975;-67
2022/10/24 05:47:24;;;;;;;16.20;10.70;;;;;;;13.24;62.06;101166.85;105738;1306;22007;-63
2022/10/24 05:49:49;;;;;;;13.80;10.30;;;;;;;13.35;62.05;101161.98;105713;1306;21979;-68
2022/10/24 05:52:15;;;;;;;14.40;11.00;;;;;;;13.44;62.00;101164.73;105719;1305;21951;-64
2022/10/24 05:54:41;;;;;;;13.10;10.20;;;;;;;13.54;61.99;101166.38;105640;1306;21970;-63
2022/10/24 05:57:09;;;;;;;13.40;10.00;;;;;;;13.62;62.05;101166.81;105749;1306;22004;-63
2022/10/24 05:59:36;;;;;;;14.00;10.70;;;;;;;13.71;62.06;101164.92;105842;1300;21977;-66
2022/10/24 06:02:02;;;;;;;16.40;11.20;;;;;;;13.81;62.08;101160.05;105771;1305;21959;-63
2022/10/24 06:04:31;;;;;;;15.70;11.10;;;;;;;13.91;62.29;101161.14;105765;1306;21956;-63
2022/10/24 06:06:57;;;;;;;18.10;11.40;;;;;;;13.97;62.51;101164.59;105673;1306;21969;-62
2022/10/24 06:09:24;;;;;;;14.50;10.50;;;;;;;14.07;62.53;101161.98;105884;1306;21961;-66
2022/10/24 06:11:52;;;;;;;13.60;10.50;;;;;;;14.22;62.64;101163.52;105698;1305;21968;-64
2022/10/24 06:14:20;;;;;;;11.60;9.70;;;;;;;14.36;62.49;101162.26;105788;1306;21983;-64
2022/10/24 06:16:47;;;;;;;17.40;10.60;;;;;;;14.52;62.60;101162.73;105704;1306;22028;-64
2022/10/24 06:19:15;;;;;;;15.20;10.50;;;;;;;14.65;62.52;101160.23;105777;1301;21953;-63
2022/10/24 06:21:42;;;;;;;14.30;10.60;;;;;;;14.81;62.57;101162.63;105743;1305;22003;-63
2022/10/24 06:24:07;;;;;;;13.30;10.30;;;;;;;14.97;62.48;101167.81;105726;1306;21965;-63
2022/10/24 06:26:34;;;;;;;15.30;10.70;;;;;;;15.08;62.41;101165.85;105699;1305;21970;-62
2022/10/24 06:29:00;;;;;;;15.90;10.80;;;;;;;15.20;62.38;101159.79;105779;1305;22072;-66
2022/10/24 06:31:26;;;;;;;13.70;9.60;;;;;;;15.35;62.34;101154.73;105719;1306;21958;-66
2022/10/24 06:33:54;;;;;;;13.30;10.20;;;;;;;15.47;62.24;101152.20;105757;1306;22002;-65
2022/10/24 06:36:20;;;;;;;15.40;10.20;;;;;;;15.60;62.29;101152.65;105790;1297;21964;-65
2022/10/24 06:38:47;;;;;;;13.60;9.70;;;;;;;15.76;62.26;101151.60;105709;1306;21970;-66
2022/10/24 06:41:15;;;;;;;15.00;10.40;;;;;;;15.91;62.28;101155.54;105738;1304;21960;-65
2022/10/24 06:43:41;;;;;;;12.70;9.30;;;;;;;16.05;62.19;101156.84;105712;1301;22033;-65
2022/10/24 06:46:08;;;;;;;15.40;10.60;;;;;;;16.18;62.24;101154.75;105844;1306;21973;-66
2022/10/24 06:48:34;;;;;;;14.50;11.20;;;;;;;16.33;62.19;101152.30;105745;1306;22007;-66
2022/10/24 06:51:00;;;;;;;14.70;10.20;;;;;;;16.46;62.00;101148.98;105756;1306;21962;-66
2022/10/24 06:53:26;;;;;;;17.40;10.20;;;;;;;16.58;61.99;101143.71;105744;1306;21967;-67
2022/10/24 06:55:53;;;;;;;14.20;10.20;;;;;;;16.68;61.99;101142.23;105683;1306;21969;-65
2022/10/24 06:58:19;;;;;;;13.70;10.50;;;;;;;16.78;61.98;101143.02;105740;1306;21966;-66
2022/10/24 07:00:44;;;;;;;16.10;11.50;;;;;;;16.93;62.14;101140.35;105756;1306;21967;-66
2022/10/24 07:03:14;;;;;;;13.40;9.90;;;;;;;17.09;62.04;101136.23;105635;1306;21977;-67
2022/10/24 07:05:40;;;;;;;23.40;15.80;;;;;;;17.25;61.74;101133.27;105763;1306;21974;-66
2022/10/24 07:08:07;;;;;;;36.50;20.70;;;;;;;17.38;61.58;101133.98;105811;1306;21964;-66
2022/10/24 07:10:36;;;;;;;32.80;25.10;;;;;;;17.56;62.09;101134.36;105809;1306;23675;-65
2022/10/24 07:13:02;;;;;;;29.50;22.70;;;;;;;17.78;61.92;101133.55;105807;1306;21969;-67
2022/10/24 07:15:34;;;;;;;26.10;18.50;;;;;;;17.96;61.92;101132.66;105743;1306;21963;-65
2022/10/24 07:18:01;;;;;;;15.00;10.70;;;;;;;18.17;61.75;101128.98;105752;1306;21979;-67
2022/10/24 07:20:27;;;;;;;13.10;9.70;;;;;;;18.36;61.39;101129.98;105752;1306;21953;-68
2022/10/24 07:22:54;;;;;;;10.80;9.00;;;;;;;18.50;60.88;101130.03;105680;1306;21975;-68
2022/10/24 07:25:20;;;;;;;12.10;9.30;;;;;;;18.61;61.03;101128.61;105673;1306;21977;-67
2022/10/24 07:27:45;;;;;;;16.20;12.20;;;;;;;18.76;60.94;101125.95;105698;1306;22008;-68
2022/10/24 07:30:15;;;;;;;13.70;9.90;;;;;;;18.89;60.77;101126.95;105698;1306;21976;-69
2022/10/24 07:32:41;;;;;;;46.30;25.50;;;;;;;19.07;60.62;101123.14;105721;1306;21965;-67
2022/10/24 07:35:07;;;;;;;23.60;14.60;;;;;;;19.19;60.35;101123.08;105769;1305;21963;-67
2022/10/24 07:37:33;;;;;;;28.50;23.10;;;;;;;19.28;60.16;101118.80;105809;1306;21967;-67
2022/10/24 07:39:58;;;;;;;23.40;19.10;;;;;;;19.38;59.74;101119.34;105799;1295;21977;-66
2022/10/24 07:42:25;;;;;;;15.60;14.00;;;;;;;19.39;59.66;101118.60;105741;1306;21963;-67
2022/10/24 07:44:51;;;;;;;14.90;8.80;;;;;;;19.50;59.76;101119.63;105736;1306;21972;-66
2022/10/24 07:47:17;;;;;;;29.50;8.80;;;;;;;19.64;59.98;101113.75;105710;1305;21965;-68
2022/10/24 07:49:44;;;;;;;14.00;6.70;;;;;;;19.78;59.67;101115.00;105689;1306;21972;-68
2022/10/24 07:52:10;;;;;;;9.60;6.90;;;;;;;19.88;59.39;101115.30;105658;1306;21973;-67
2022/10/24 07:54:35;;;;;;;13.60;6.70;;;;;;;20.06;59.17;101113.54;105643;1301;21963;-68
2022/10/24 07:57:02;;;;;;;9.70;6.50;;;;;;;20.23;58.97;101116.06;105644;1306;22434;-68
2022/10/24 07:59:28;;;;;;;9.30;6.40;;;;;;;20.41;58.46;101116.60;105713;1306;21975;-68
2022/10/24 08:01:54;;;;;;;9.40;5.90;;;;;;;20.56;58.63;101112.74;105724;1305;21959;-67
2022/10/24 08:04:20;;;;;;;9.30;5.20;;;;;;;20.75;58.40;101120.30;105836;1306;21964;-66
2022/10/24 08:06:46;;;;;;;6.10;4.30;;;;;;;20.94;58.05;101117.02;105708;1305;21941;-69
2022/10/24 08:09:11;;;;;;;7.50;4.70;;;;;;;21.08;57.46;101114.66;105672;1305;21977;-69
2022/10/24 08:11:38;;;;;;;97.90;10.10;;;;;;;21.17;57.07;101116.73;105728;1306;22033;-69
2022/10/24 08:14:03;;;;;;;13.10;5.60;;;;;;;21.22;56.89;101117.20;105763;1301;21970;-69
2022/10/24 08:16:29;;;;;;;11.10;6.30;;;;;;;21.22;56.81;101113.48;105718;1301;21965;-69
2022/10/24 08:18:56;;;;;;;38.60;20.60;;;;;;;21.22;56.17;101114.20;105766;1306;21964;-67
2022/10/24 08:21:22;;;;;;;37.80;20.00;;;;;;;21.18;55.92;101119.93;105874;1305;21964;-67
2022/10/24 08:23:50;;;;;;;15.50;8.90;;;;;;;21.21;56.31;101119.95;105819;1306;21963;-69
2022/10/24 08:26:17;;;;;;;13.10;10.20;;;;;;;21.27;56.14;101119.34;105786;1306;21980;-68
2022/10/24 08:28:44;;;;;;;15.60;9.80;;;;;;;21.35;55.90;101122.89;105823;1306;21962;-68
2022/10/24 08:31:11;;;;;;;11.10;7.40;;;;;;;21.43;55.40;101123.79;105616;1306;22030;-67
2022/10/24 08:33:37;;;;;;;9.60;7.30;;;;;;;21.49;55.37;101121.54;105832;1306;21967;-68
2022/10/24 08:36:10;;;;;;;11.80;8.60;;;;;;;21.58;55.39;101123.81;105780;1306;22756;-67
2022/10/24 08:38:36;;;;;;;9.70;7.50;;;;;;;21.65;54.95;101121.20;105815;1306;21970;-69
2022/10/24 08:41:01;;;;;;;7.70;5.30;;;;;;;21.73;55.17;101120.80;105787;1306;21991;-68
2022/10/24 08:43:27;;;;;;;10.70;6.30;;;;;;;21.79;54.86;101121.08;105660;1306;22151;-67
2022/10/24 08:46:03;;;;;;;8.30;6.10;;;;;;;21.81;54.72;101120.08;105647;1306;21960;-68
2022/10/24 08:48:32;;;;;;;7.40;5.50;;;;;;;21.89;55.11;101122.05;105746;1305;21975;-66
2022/10/24 08:51:07;;;;;;;9.00;6.20;;;;;;;22.04;54.63;101125.25;105922;1306;22010;-69
2022/10/24 08:53:32;;;;;;;7.30;5.50;;;;;;;22.11;54.76;101123.63;105706;1307;21960;-66
2022/10/24 08:55:59;;;;;;;8.00;5.50;;;;;;;22.27;54.47;101122.35;105617;1309;21969;-69
2022/10/24 08:58:35;;;;;;;7.90;5.80;;;;;;;22.41;53.85;101122.73;105703;1302;21968;-66
2022/10/24 09:01:02;;;;;;;7.90;5.70;;;;;;;22.49;53.59;101125.03;105741;1306;21967;-68
2022/10/24 09:03:47;;;;;;;9.90;4.80;;;;;;;22.55;53.64;101120.21;107137;1306;21960;-69
2022/10/24 09:06:34;;;;;;;11.10;5.80;;;;;;;22.53;52.98;101124.42;105732;1306;22041;-69
2022/10/24 09:09:18;;;;;;;9.00;6.20;;;;;;;22.50;52.45;101128.76;105821;1304;22011;-69
2022/10/24 09:11:50;;;;;;;12.50;5.90;;;;;;;22.53;53.10;101128.77;105694;1305;21959;-67
2022/10/24 09:14:17;;;;;;;9.80;5.70;;;;;;;22.51;52.29;101125.66;105668;1307;21990;-66
2022/10/24 09:16:49;;;;;;;10.40;7.10;;;;;;;22.52;52.63;101125.60;105693;1306;21965;-68
2022/10/24 09:19:23;;;;;;;10.50;7.00;;;;;;;22.48;52.79;101127.41;105677;1305;21964;-68
2022/10/24 09:21:50;;;;;;;8.60;6.30;;;;;;;22.47;52.59;101132.81;105795;1304;21979;-66
2022/10/24 09:24:47;;;;;;;9.60;6.30;;;;;;;22.46;52.26;101131.28;105756;1306;21961;-66
2022/10/24 09:27:18;;;;;;;8.80;6.30;;;;;;;22.46;52.28;101135.75;105683;1306;21991;-69
2022/10/24 09:29:44;;;;;;;7.80;6.30;;;;;;;22.50;52.51;101137.46;105824;1306;21970;-67
2022/10/24 09:32:21;;;;;;;13.00;7.20;;;;;;;22.53;52.20;101133.40;105596;1306;21959;-67
2022/10/24 09:34:47;;;;;;;8.50;6.00;;;;;;;22.49;51.99;101130.73;105734;1306;22008;-67
2022/10/24 09:37:31;;;;;;;7.10;5.80;;;;;;;22.55;51.83;101122.74;105970;1306;21986;-67
2022/10/24 09:40:22;;;;;;;13.80;6.60;;;;;;;22.62;51.06;101122.94;105733;1306;21970;-67
2022/10/24 09:42:50;;;;;;;9.40;6.50;;;;;;;22.67;50.61;101118.95;105836;1306;21979;-67
2022/10/24 09:45:28;;;;;;;8.00;6.00;;;;;;;22.75;50.69;101120.31;105823;1305;21961;-69
2022/10/24 09:47:59;;;;;;;7.60;5.80;;;;;;;22.80;51.02;101118.98;105769;1306;21971;-67
2022/10/24 09:50:25;;;;;;;9.50;6.60;;;;;;;22.85;50.91;101116.38;105743;1306;21964;-67
2022/10/24 09:52:51;;;;;;;8.50;6.00;;;;;;;22.91;50.78;101113.06;105745;1306;21981;-67
2022/10/24 09:55:23;;;;;;;8.30;5.20;;;;;;;23.00;50.95;101113.28;105777;1306;21977;-69
2022/10/24 09:57:53;;;;;;;10.20;5.80;;;;;;;23.13;50.56;101108.30;105771;1306;22156;-69
2022/10/24 10:00:28;;;;;;;7.50;5.00;;;;;;;23.30;50.75;101105.27;105830;1306;21976;-68
2022/10/24 10:03:11;;;;;;;5.90;5.00;;;;;;;23.47;50.64;101101.88;105946;1297;21963;-69
2022/10/24 10:05:42;;;;;;;8.60;4.80;;;;;;;23.56;49.01;101103.88;105632;1303;22052;-67
2022/10/24 10:08:15;;;;;;;5.80;4.30;;;;;;;23.66;49.34;101100.11;105747;1306;21956;-68
2022/10/24 10:10:42;;;;;;;6.10;4.20;;;;;;;23.83;48.77;101101.85;105616;1307;23642;-67
2022/10/24 10:13:14;;;;;;;5.70;4.50;;;;;;;23.93;48.56;101101.45;105602;1306;21940;-66
2022/10/24 10:15:46;;;;;;;6.80;4.30;;;;;;;23.92;48.38;101096.85;106011;1297;21979;-66
2022/10/24 10:18:20;;;;;;;7.40;4.40;;;;;;;23.96;48.78;101096.44;105641;1306;21946;-67
2022/10/24 10:21:02;;;;;;;7.60;5.00;;;;;;;24.02;48.65;101090.53;105897;1306;24374;-67
2022/10/24 10:23:41;;;;;;;6.00;4.30;;;;;;;24.09;48.35;101089.83;105815;1306;21968;-67
2022/10/24 10:26:20;;;;;;;5.20;4.50;;;;;;;24.16;48.27;101087.58;105772;1305;21937;-66
2022/10/24 10:29:05;;;;;;;5.90;4.70;;;;;;;24.19;48.05;101085.63;105780;1306;22016;-65
2022/10/24 10:31:36;;;;;;;5.80;4.40;;;;;;;24.22;47.59;101086.90;105764;1305;22040;-66
2022/10/24 10:34:08;;;;;;;8.30;5.10;;;;;;;24.23;47.72;101085.98;105911;1306;21972;-67
2022/10/24 10:36:39;;;;;;;7.10;4.80;;;;;;;24.23;46.78;101085.96;107701;1305;21831;-69
2022/10/24 10:39:51;;;;;;;7.00;4.60;;;;;;;24.21;45.81;101085.16;107553;1309;21854;-68
2022/10/24 10:42:35;;;;;;;6.70;4.50;;;;;;;24.25;47.45;101078.86;106007;1306;21970;-65
2022/10/24 10:45:10;;;;;;;7.30;4.30;;;;;;;24.22;47.68;101078.33;105678;1308;23640;-67
2022/10/24 10:47:55;;;;;;;6.70;5.00;;;;;;;24.16;46.85;101079.55;105757;1300;22330;-65
2022/10/24 10:50:26;;;;;;;5.80;4.10;;;;;;;24.16;47.39;101072.89;105764;1308;23687;-65
2022/10/24 10:52:54;;;;;;;4.90;4.20;;;;;;;24.14;46.68;101070.86;105765;1306;21979;-66
2022/10/24 10:55:54;;;;;;;6.50;4.40;;;;;;;24.10;46.83;101071.82;105716;1306;21990;-68
2022/10/24 10:58:23;;;;;;;8.10;4.80;;;;;;;24.13;47.23;101067.19;105758;1302;21969;-65
2022/10/24 11:01:07;;;;;;;6.20;4.20;;;;;;;24.10;47.17;101066.64;105746;1306;21966;-66
2022/10/24 11:03:47;;;;;;;4.70;4.00;;;;;;;24.02;47.47;101065.45;105730;1307;21977;-66
2022/10/24 11:06:28;;;;;;;6.00;4.30;;;;;;;24.01;47.46;101061.05;105683;1306;22510;-68
2022/10/24 11:09:00;;;;;;;5.70;3.60;;;;;;;23.99;46.30;101061.33;105716;1304;21972;-66
2022/10/24 11:11:31;;;;;;;5.00;3.60;;;;;;;24.02;46.16;101060.46;105830;1306;21974;-65
2022/10/24 11:14:17;;;;;;;4.90;3.70;;;;;;;24.05;45.65;101060.43;105725;1305;21973;-68
2022/10/24 11:16:43;;;;;;;5.30;3.80;;;;;;;24.06;46.10;101057.02;105777;1306;22242;-65
2022/10/24 11:19:34;;;;;;;6.10;3.80;;;;;;;24.07;46.56;101057.45;105826;1301;21979;-66
2022/10/24 11:22:02;;;;;;;6.90;3.30;;;;;;;24.08;46.69;101053.66;105650;1308;21974;-65